Terminal Aerodrome Forecast
Issued by NWS

Home | Current Version | Previous Version | Text Only | Print | Product List | Glossary On
Versions: 1 2 3 4 5 6 7 8 9 10 11 12 13 14 15
000
FTUS45 KABQ 201400 AAB
TAFLVS
TAF AMD
KLVS 201425Z 2014/2112 24005KT P6SM -SHRA BKN035 OVC045
      TEMPO 2014/2015 4SM RA BR OVC050
     FM201800 33011KT P6SM VCTS BKN050CB
     FM202100 33010KT P6SM VCSH SCT050 BKN100
     FM202300 33011KT P6SM SCT050 BKN100
     FM210100 01007KT P6SM SCT100 BKN150=

USA.gov is the U.S. government's official web portal to all federal, state and local government web resources and services.